createdAt,value
2017-11-18T00:01:48.781Z,37.20
2017-11-18T00:04:15.407Z,39.85
2017-11-18T00:06:42.347Z,31.02
2017-11-18T00:09:08.915Z,34.97
2017-11-18T00:11:35.587Z,33.67
2017-11-18T00:14:02.508Z,36.30
2017-11-18T00:16:29.067Z,27.80
2017-11-18T00:18:55.659Z,35.92
2017-11-18T00:21:22.216Z,35.22
2017-11-18T00:23:48.776Z,32.08
2017-11-18T00:26:15.367Z,28.40
2017-11-18T00:28:42.284Z,37.42
2017-11-18T00:31:08.823Z,34.53
2017-11-18T00:33:35.432Z,37.55
2017-11-18T00:36:01.987Z,30.25
2017-11-18T00:38:28.548Z,33.03
2017-11-18T00:40:55.169Z,28.77
2017-11-18T00:43:22.575Z,34.50
2017-11-18T00:45:49.152Z,31.23
2017-11-18T00:48:15.767Z,36.60
2017-11-18T00:50:42.312Z,32.65
2017-11-18T00:53:08.840Z,29.83
2017-11-18T00:55:35.829Z,34.20
2017-11-18T00:58:02.391Z,33.40
2017-11-18T01:00:28.935Z,32.30
2017-11-18T01:02:55.998Z,35.20
2017-11-18T01:05:22.920Z,31.62
2017-11-18T01:07:49.466Z,35.13
2017-11-18T01:10:16.071Z,34.05
2017-11-18T01:12:42.610Z,33.47
2017-11-18T01:15:09.143Z,29.50
2017-11-18T01:17:35.734Z,30.33
2017-11-18T01:20:02.390Z,31.30
2017-11-18T01:22:28.953Z,26.60
2017-11-18T01:24:55.817Z,27.45
2017-11-18T01:27:22.475Z,25.55
2017-11-18T01:29:49.023Z,24.55
2017-11-18T01:32:15.636Z,28.42
2017-11-18T01:34:42.559Z,27.98
2017-11-18T01:37:09.130Z,32.05
2017-11-18T01:39:35.758Z,33.60
2017-11-18T01:42:02.323Z,31.00
2017-11-18T01:44:28.884Z,30.17
2017-11-18T01:46:55.528Z,24.65
2017-11-18T01:49:22.092Z,33.55
2017-11-18T01:51:48.644Z,26.85
2017-11-18T01:54:15.262Z,29.52
2017-11-18T01:56:41.806Z,26.08
2017-11-18T01:59:08.376Z,29.95
2017-11-18T02:01:35.015Z,33.20
2017-11-18T02:04:01.603Z,26.15
2017-11-18T02:06:28.196Z,30.48
2017-11-18T02:08:55.196Z,33.70
2017-11-18T02:11:21.800Z,28.45
2017-11-18T02:13:48.368Z,25.60
2017-11-18T02:16:15.026Z,27.87
2017-11-18T02:18:41.649Z,26.65
2017-11-18T02:21:08.260Z,31.08
2017-11-18T02:23:34.939Z,30.15
2017-11-18T02:26:01.931Z,31.67
2017-11-18T02:28:28.543Z,29.73
2017-11-18T02:30:55.224Z,31.35
2017-11-18T02:33:22.199Z,31.05
2017-11-18T02:35:49.209Z,26.77
2017-11-18T02:38:15.895Z,27.85
2017-11-18T02:40:42.516Z,33.60
2017-11-18T02:43:09.164Z,32.13
2017-11-18T02:45:35.951Z,31.35
2017-11-18T02:48:02.620Z,31.85
2017-11-18T02:50:29.247Z,30.65
2017-11-18T02:52:56.057Z,31.00
2017-11-18T02:55:22.680Z,35.47
2017-11-18T02:57:49.307Z,29.58
2017-11-18T03:00:16.040Z,20.62
2017-11-18T03:02:42.599Z,25.40
2017-11-18T03:05:09.191Z,31.05
2017-11-18T03:07:35.803Z,29.63
2017-11-18T03:10:03.180Z,30.05
2017-11-18T03:12:29.742Z,29.90
2017-11-18T03:14:56.408Z,30.33
2017-11-18T03:17:22.976Z,31.17
2017-11-18T03:19:49.532Z,31.62
2017-11-18T03:22:16.306Z,28.15
2017-11-18T03:24:42.894Z,36.85
2017-11-18T03:27:09.473Z,33.92
2017-11-18T03:29:36.460Z,33.90
2017-11-18T03:32:03.411Z,35.25
2017-11-18T03:34:29.972Z,31.08
2017-11-18T03:36:56.613Z,34.03
2017-11-18T03:39:23.195Z,35.35
2017-11-18T03:41:49.785Z,30.62
2017-11-18T03:44:16.412Z,26.75
2017-11-18T03:46:43.156Z,35.22
2017-11-18T03:49:09.736Z,36.15
2017-11-18T03:51:36.373Z,37.05
2017-11-18T03:54:02.947Z,30.88
2017-11-18T03:56:29.497Z,36.17
2017-11-18T03:58:56.182Z,32.42
2017-11-18T04:01:22.911Z,34.40
2017-11-18T04:03:49.500Z,34.40
2017-11-18T04:06:16.152Z,31.55
2017-11-18T04:08:42.729Z,32.33
2017-11-18T04:11:09.427Z,33.65
2017-11-18T04:13:36.078Z,31.65
2017-11-18T04:16:02.688Z,34.50
2017-11-18T04:18:29.256Z,34.47
2017-11-18T04:20:55.988Z,29.73
2017-11-18T04:23:22.546Z,31.42
2017-11-18T04:25:49.139Z,30.27
2017-11-18T04:28:15.779Z,33.78
2017-11-18T04:30:42.340Z,31.42
2017-11-18T04:33:08.911Z,28.85
2017-11-18T04:35:35.523Z,31.95
2017-11-18T04:38:02.523Z,31.98
2017-11-18T04:40:29.108Z,31.48
2017-11-18T04:42:55.755Z,33.47
2017-11-18T04:45:22.379Z,28.30
2017-11-18T04:47:49.354Z,33.67
2017-11-18T04:50:16.517Z,29.87
2017-11-18T04:52:43.451Z,37.63
2017-11-18T04:55:10.027Z,34.30
2017-11-18T04:57:36.672Z,32.33
2017-11-18T05:00:03.296Z,37.50
2017-11-18T05:02:29.846Z,34.08
2017-11-18T05:04:56.567Z,36.22
2017-11-18T05:07:23.138Z,32.85
2017-11-18T05:09:49.687Z,37.90
2017-11-18T05:12:16.304Z,33.42
2017-11-18T05:14:42.875Z,35.65
2017-11-18T05:17:09.425Z,34.22
2017-11-18T05:19:36.043Z,32.95
2017-11-18T05:22:02.627Z,40.65
2017-11-18T05:24:29.571Z,39.88
2017-11-18T05:26:56.341Z,41.92
2017-11-18T05:29:22.936Z,39.53
2017-11-18T05:31:49.625Z,42.42
2017-11-18T05:34:16.360Z,38.38
2017-11-18T05:36:42.955Z,36.95
2017-11-18T05:39:09.512Z,33.10
2017-11-18T05:41:36.123Z,37.78
2017-11-18T05:44:03.044Z,37.25
2017-11-18T05:46:29.601Z,41.53
2017-11-18T05:48:56.309Z,45.47
2017-11-18T05:51:23.223Z,31.05
2017-11-18T05:53:49.767Z,35.75
2017-11-18T05:56:16.391Z,42.45
2017-11-18T05:58:43.341Z,37.17
2017-11-18T06:01:09.940Z,37.92
2017-11-18T06:03:36.936Z,35.53
2017-11-18T06:06:03.528Z,31.12
2017-11-18T06:08:30.084Z,36.33
2017-11-18T06:10:56.788Z,39.45
2017-11-18T06:13:23.708Z,33.97
2017-11-18T06:15:50.273Z,46.00
2017-11-18T06:18:16.902Z,35.95
2017-11-18T06:20:43.471Z,39.70
2017-11-18T06:23:10.023Z,36.15
2017-11-18T06:25:36.626Z,30.02
2017-11-18T06:28:03.204Z,37.08
2017-11-18T06:30:30.130Z,37.45
2017-11-18T06:32:56.835Z,44.15
2017-11-18T06:35:23.752Z,41.50
2017-11-18T06:37:50.304Z,40.12
2017-11-18T06:40:16.911Z,38.33
2017-11-18T06:42:43.465Z,45.53
2017-11-18T06:45:10.026Z,46.35
2017-11-18T06:47:36.698Z,40.92
2017-11-18T06:50:03.313Z,49.83
2017-11-18T06:52:29.865Z,44.33
2017-11-18T06:54:56.484Z,42.08
2017-11-18T06:57:23.308Z,37.55
2017-11-18T06:59:50.119Z,40.60
2017-11-18T07:02:16.731Z,40.60
2017-11-18T07:04:43.275Z,38.92
2017-11-18T07:07:09.855Z,45.45
2017-11-18T07:09:36.512Z,50.05
2017-11-18T07:12:03.064Z,51.65
2017-11-18T07:14:29.958Z,47.80
2017-11-18T07:16:56.921Z,52.00
2017-11-18T07:19:23.496Z,44.22
2017-11-18T07:21:50.060Z,49.60
2017-11-18T07:24:16.661Z,44.22
2017-11-18T07:26:43.212Z,42.20
2017-11-18T07:29:10.145Z,44.75
2017-11-18T07:31:36.799Z,46.70
2017-11-18T07:34:03.364Z,50.08
2017-11-18T07:36:29.919Z,42.60
2017-11-18T07:38:56.543Z,52.33
2017-11-18T07:41:23.103Z,40.55
2017-11-18T07:43:49.746Z,40.92
2017-11-18T07:46:19.094Z,46.20
2017-11-18T07:48:47.138Z,42.42
2017-11-18T07:51:19.038Z,44.67
2017-11-18T07:53:45.867Z,50.28
2017-11-18T07:56:12.704Z,56.05
2017-11-18T07:58:39.308Z,47.42
2017-11-18T08:01:05.863Z,48.13
2017-11-18T08:03:32.424Z,57.35
2017-11-18T08:05:59.023Z,53.00
2017-11-18T08:08:25.968Z,59.25
2017-11-18T08:10:52.518Z,63.03
2017-11-18T08:13:19.192Z,60.80
2017-11-18T08:15:45.742Z,58.30
2017-11-18T08:18:12.320Z,71.50
2017-11-18T08:20:38.978Z,67.47
2017-11-18T08:23:05.571Z,62.20
2017-11-18T08:25:32.115Z,68.53
2017-11-18T08:27:59.111Z,65.03
2017-11-18T08:30:25.667Z,63.20
2017-11-18T08:32:52.215Z,62.88
2017-11-18T08:35:19.296Z,61.70
2017-11-18T08:37:45.852Z,71.62
2017-11-18T08:40:12.394Z,62.92
2017-11-18T08:42:39.387Z,58.58
2017-11-18T08:45:05.928Z,67.65
2017-11-18T08:47:33.028Z,68.00
2017-11-18T08:50:06.838Z,67.22
2017-11-18T08:52:33.380Z,69.18
2017-11-18T08:55:00.007Z,60.08
2017-11-18T08:57:27.051Z,66.93
2017-11-18T08:59:53.621Z,59.85
2017-11-18T09:02:20.208Z,54.75
2017-11-18T09:04:46.826Z,56.42
2017-11-18T09:07:13.395Z,52.97
2017-11-18T09:09:39.952Z,49.97
2017-11-18T09:12:06.560Z,42.78
2017-11-18T09:14:33.112Z,39.95
2017-11-18T09:16:59.662Z,39.60
2017-11-18T09:19:26.309Z,35.65
2017-11-18T09:21:52.887Z,35.80
2017-11-18T09:24:19.436Z,31.30
2017-11-18T09:26:46.052Z,35.38
2017-11-18T09:29:19.685Z,30.15
2017-11-18T09:31:46.292Z,34.70
2017-11-18T09:34:12.880Z,27.23
2017-11-18T09:36:39.425Z,30.48
2017-11-18T09:39:06.064Z,37.83
2017-11-18T09:41:32.608Z,20.75
2017-11-18T09:43:59.159Z,26.98
2017-11-18T09:46:25.794Z,19.45
2017-11-18T09:48:52.720Z,26.92
2017-11-18T09:51:19.399Z,23.98
2017-11-18T09:53:46.004Z,23.50
2017-11-18T09:56:12.570Z,19.98
2017-11-18T09:58:39.125Z,21.75
2017-11-18T10:01:05.735Z,22.30
2017-11-18T10:03:32.319Z,23.73
2017-11-18T10:05:59.323Z,20.77
2017-11-18T10:08:25.963Z,22.23
2017-11-18T10:10:52.538Z,22.40
2017-11-18T10:13:19.087Z,40.67
2017-11-18T10:15:45.784Z,31.75
2017-11-18T10:18:12.376Z,25.67
2017-11-18T10:20:38.924Z,29.80
2017-11-18T10:23:05.531Z,25.15
2017-11-18T10:25:32.094Z,21.25
2017-11-18T10:27:59.065Z,28.05
2017-11-18T10:30:25.699Z,23.67
2017-11-18T10:32:52.632Z,22.92
2017-11-18T10:35:19.192Z,20.15
2017-11-18T10:37:46.122Z,24.52
2017-11-18T10:40:12.708Z,19.30
2017-11-18T10:42:39.267Z,22.25
2017-11-18T10:45:05.955Z,25.75
2017-11-18T10:47:32.548Z,21.92
2017-11-18T10:49:59.496Z,22.45
2017-11-18T10:52:26.171Z,26.70
2017-11-18T10:54:53.159Z,26.05
2017-11-18T10:57:19.744Z,27.25
2017-11-18T10:59:46.371Z,21.92
2017-11-18T11:02:13.179Z,21.40
2017-11-18T11:04:39.804Z,25.12
2017-11-18T11:07:06.477Z,19.15
2017-11-18T11:09:33.069Z,18.35
2017-11-18T11:11:59.658Z,20.23
2017-11-18T11:14:33.245Z,21.67
2017-11-18T11:16:59.886Z,23.12
2017-11-18T11:19:26.488Z,16.65
2017-11-18T11:21:53.104Z,19.98
2017-11-18T11:24:19.677Z,13.68
2017-11-18T11:26:46.248Z,16.15
2017-11-18T11:29:12.876Z,16.87
2017-11-18T11:31:39.467Z,16.65
2017-11-18T11:34:06.091Z,17.75
2017-11-18T11:36:32.770Z,15.43
2017-11-18T11:38:59.429Z,16.60
2017-11-18T11:41:26.176Z,12.90
2017-11-18T11:43:52.948Z,16.98
2017-11-18T11:46:19.643Z,13.38
2017-11-18T11:48:46.227Z,15.93
2017-11-18T11:51:12.908Z,17.55
2017-11-18T11:53:39.503Z,15.88
2017-11-18T11:56:06.210Z,11.90
2017-11-18T11:58:32.862Z,18.65
2017-11-18T12:00:59.420Z,10.13
2017-11-18T12:03:26.028Z,13.88
2017-11-18T12:05:53.208Z,10.75
2017-11-18T12:08:20.167Z,11.57
2017-11-18T12:10:47.104Z,10.73
2017-11-18T12:13:13.820Z,13.23
2017-11-18T12:15:40.434Z,11.98
2017-11-18T12:18:07.034Z,15.02
2017-11-18T12:20:34.036Z,14.30
2017-11-18T12:23:00.946Z,12.43
2017-11-18T12:25:27.927Z,16.85
2017-11-18T12:27:55.008Z,15.07
2017-11-18T12:30:21.994Z,10.90
2017-11-18T12:32:48.613Z,19.35
2017-11-18T12:35:15.327Z,12.27
2017-11-18T12:37:41.897Z,10.40
2017-11-18T12:40:08.474Z,9.60
2017-11-18T12:42:35.178Z,14.68
2017-11-18T12:45:02.143Z,13.05
2017-11-18T12:47:29.087Z,9.57
2017-11-18T12:49:55.739Z,9.07
2017-11-18T12:52:22.347Z,8.63
2017-11-18T12:54:49.295Z,9.52
2017-11-18T12:57:15.964Z,9.05
2017-11-18T12:59:42.896Z,8.13
2017-11-18T13:02:09.496Z,10.13
2017-11-18T13:04:36.499Z,8.77
2017-11-18T13:07:03.088Z,8.52
2017-11-18T13:09:29.658Z,9.27
2017-11-18T13:11:56.305Z,11.00
2017-11-18T13:14:22.878Z,11.27
2017-11-18T13:16:49.430Z,11.00
2017-11-18T13:19:16.044Z,10.32
2017-11-18T13:21:42.596Z,8.20
2017-11-18T13:24:09.532Z,7.97
2017-11-18T13:26:36.148Z,8.90
2017-11-18T13:29:02.700Z,10.75
2017-11-18T13:31:29.284Z,9.25
2017-11-18T13:33:55.965Z,7.32
2017-11-18T13:36:22.572Z,9.77
2017-11-18T13:38:49.158Z,7.87
2017-11-18T13:41:15.783Z,6.75
2017-11-18T13:43:42.743Z,7.25
2017-11-18T13:46:09.699Z,7.80
2017-11-18T13:48:36.505Z,7.47
2017-11-18T13:51:03.076Z,9.73
2017-11-18T13:53:29.623Z,7.45
2017-11-18T13:55:56.304Z,9.38
2017-11-18T13:58:22.843Z,8.93
2017-11-18T14:00:49.475Z,13.57
2017-11-18T14:03:16.191Z,10.35
2017-11-18T14:05:42.800Z,12.37
2017-11-18T14:08:09.775Z,11.35
2017-11-18T14:10:36.772Z,54.40
2017-11-18T14:13:03.380Z,34.05
2017-11-18T14:15:29.988Z,32.72
2017-11-18T14:17:56.649Z,20.42
2017-11-18T14:20:23.247Z,11.85
2017-11-18T14:22:49.835Z,12.95
2017-11-18T14:25:16.491Z,12.20
2017-11-18T14:27:43.059Z,11.30
2017-11-18T14:30:09.660Z,12.90
2017-11-18T14:32:36.286Z,13.38
2017-11-18T14:35:02.844Z,12.82
2017-11-18T14:37:29.439Z,11.82
2017-11-18T14:39:56.111Z,12.43
2017-11-18T14:42:22.707Z,12.13
2017-11-18T14:44:49.296Z,13.43
2017-11-18T14:47:16.323Z,13.93
2017-11-18T14:49:42.916Z,14.13
2017-11-18T14:52:09.501Z,12.50
2017-11-18T14:54:36.239Z,15.65
2017-11-18T14:57:03.064Z,24.12
2017-11-18T14:59:29.695Z,10.93
2017-11-18T15:01:56.451Z,12.45
2017-11-18T15:04:23.514Z,12.68
2017-11-18T15:06:50.551Z,13.05
2017-11-18T15:09:17.308Z,14.38
2017-11-18T15:11:43.989Z,19.08
2017-11-18T15:14:10.684Z,15.18
2017-11-18T15:16:43.691Z,18.12
2017-11-18T15:19:18.560Z,20.15
2017-11-18T15:21:51.383Z,18.42
2017-11-18T15:24:24.164Z,20.88
2017-11-18T15:26:57.311Z,15.20
2017-11-18T15:32:36.913Z,12.30
2017-11-18T15:35:14.520Z,14.65
2017-11-18T15:37:44.515Z,15.38
2017-11-18T15:40:11.223Z,14.85
2017-11-18T15:42:38.312Z,26.35
2017-11-18T15:45:06.915Z,13.77
2017-11-18T15:50:51.668Z,22.98
2017-11-18T15:53:21.363Z,18.00
2017-11-18T15:58:53.038Z,24.48
2017-11-18T16:01:25.931Z,27.15
2017-11-18T16:04:11.297Z,10.98
2017-11-18T16:06:39.000Z,16.77
2017-11-18T16:09:06.046Z,15.38
2017-11-18T16:11:32.684Z,15.82
2017-11-18T16:13:59.431Z,12.75
2017-11-18T16:16:26.099Z,12.93
2017-11-18T16:18:52.776Z,11.02
2017-11-18T16:21:19.470Z,10.10
2017-11-18T16:23:46.102Z,8.60
2017-11-18T16:26:12.759Z,10.73
2017-11-18T16:28:39.451Z,11.38
2017-11-18T16:31:06.100Z,8.90
2017-11-18T16:33:32.747Z,15.90
2017-11-18T16:35:59.486Z,9.45
2017-11-18T16:38:26.142Z,8.70
2017-11-18T16:40:52.789Z,10.07
2017-11-18T16:43:19.480Z,9.23
2017-11-18T16:45:46.164Z,8.98
2017-11-18T16:48:12.815Z,8.73
2017-11-18T16:50:39.487Z,11.82
2017-11-18T16:53:06.117Z,8.65
2017-11-18T16:55:32.753Z,10.05
2017-11-18T16:57:59.908Z,9.43
2017-11-18T17:00:26.583Z,9.50
2017-11-18T17:02:53.587Z,9.63
2017-11-18T17:05:20.484Z,10.65
2017-11-18T17:07:47.112Z,10.15
2017-11-18T17:10:13.732Z,9.73
2017-11-18T17:12:40.416Z,9.13
2017-11-18T17:15:07.400Z,11.52
2017-11-18T17:17:34.841Z,9.20
2017-11-18T17:20:02.162Z,8.02
2017-11-18T17:22:35.844Z,8.20
2017-11-18T17:25:02.506Z,10.00
2017-11-18T17:27:29.303Z,8.10
2017-11-18T17:29:56.337Z,8.48
2017-11-18T17:32:23.024Z,8.05
2017-11-18T17:34:50.017Z,7.90
2017-11-18T17:37:16.712Z,8.77
2017-11-18T17:39:43.379Z,10.43
2017-11-18T17:42:10.027Z,11.38
2017-11-18T17:44:36.646Z,9.32
2017-11-18T17:47:03.710Z,10.32
2017-11-18T17:49:30.699Z,9.30
2017-11-18T17:51:57.331Z,12.85
2017-11-18T17:54:24.028Z,8.05
2017-11-18T17:56:50.652Z,9.57
2017-11-18T17:59:17.312Z,6.37
2017-11-18T18:01:44.011Z,7.55
2017-11-18T18:04:10.668Z,7.15
2017-11-18T18:06:37.655Z,7.68
2017-11-18T18:09:04.340Z,7.18
2017-11-18T18:11:30.992Z,9.63
2017-11-18T18:13:57.719Z,6.95
2017-11-18T18:16:24.801Z,6.35
2017-11-18T18:18:51.393Z,6.00
2017-11-18T18:21:17.951Z,6.12
2017-11-18T18:23:44.576Z,6.50
2017-11-18T18:26:11.551Z,6.95
2017-11-18T18:28:38.533Z,5.78
2017-11-18T18:31:05.175Z,6.72
2017-11-18T18:33:31.768Z,12.10
2017-11-18T18:35:58.331Z,6.50
2017-11-18T18:38:25.043Z,5.35
2017-11-18T18:40:51.606Z,6.28
2017-11-18T18:43:18.757Z,7.15
2017-11-18T18:45:45.514Z,6.20
2017-11-18T18:48:12.139Z,6.18
2017-11-18T18:50:38.712Z,8.25
2017-11-18T18:53:05.331Z,8.07
2017-11-18T18:55:32.289Z,6.30
2017-11-18T18:57:58.865Z,7.07
2017-11-18T19:00:25.600Z,7.75
2017-11-18T19:02:52.196Z,8.38
2017-11-18T19:05:18.835Z,7.03
2017-11-18T19:07:45.853Z,8.15
2017-11-18T19:10:12.429Z,7.25
2017-11-18T19:12:39.001Z,9.07
2017-11-18T19:15:05.675Z,10.95
2017-11-18T19:17:32.239Z,8.65
2017-11-18T19:19:58.971Z,7.95
2017-11-18T19:22:25.722Z,7.30
2017-11-18T19:24:52.339Z,8.05
2017-11-18T19:27:18.904Z,7.05
2017-11-18T19:29:45.977Z,8.07
2017-11-18T19:32:12.941Z,7.40
2017-11-18T19:34:39.875Z,7.75
2017-11-18T19:37:06.556Z,8.20
2017-11-18T19:39:33.144Z,6.90
2017-11-18T19:42:00.103Z,7.50
2017-11-18T19:44:27.280Z,7.15
2017-11-18T19:46:54.264Z,8.45
2017-11-18T19:49:20.868Z,7.80
2017-11-18T19:51:47.620Z,6.70
2017-11-18T19:54:15.368Z,7.50
2017-11-18T19:56:42.332Z,7.65
2017-11-18T19:59:09.428Z,7.25
2017-11-18T20:01:36.004Z,8.50
2017-11-18T20:04:02.576Z,7.60
2017-11-18T20:06:30.748Z,8.20
2017-11-18T20:08:58.467Z,7.00
2017-11-18T20:11:25.274Z,7.25
2017-11-18T20:13:52.084Z,7.78
2017-11-18T20:16:18.671Z,8.60
2017-11-18T20:18:45.311Z,11.38
2017-11-18T20:21:12.447Z,9.27
2017-11-18T20:23:39.108Z,12.52
2017-11-18T20:26:06.058Z,10.55
2017-11-18T20:28:33.666Z,10.32
2017-11-18T20:31:00.248Z,9.55
2017-11-18T20:33:26.832Z,13.75
2017-11-18T20:35:53.505Z,13.18
2017-11-18T20:38:20.104Z,8.30
2017-11-18T20:40:46.703Z,8.52
2017-11-18T20:43:13.319Z,10.40
2017-11-18T20:45:41.043Z,10.07
2017-11-18T20:48:07.724Z,10.85
2017-11-18T20:50:34.326Z,8.80
2017-11-18T20:53:01.673Z,12.35
2017-11-18T20:55:28.759Z,12.02
2017-11-18T20:57:56.103Z,11.50
2017-11-18T21:00:22.986Z,12.88
2017-11-18T21:02:49.808Z,13.48
2017-11-18T21:05:16.676Z,12.65
2017-11-18T21:07:43.485Z,15.55
2017-11-18T21:10:10.372Z,14.25
2017-11-18T21:12:37.243Z,12.37
2017-11-18T21:15:04.978Z,12.98
2017-11-18T21:17:31.785Z,12.55
2017-11-18T21:19:58.648Z,12.65
2017-11-18T21:22:25.468Z,13.07
2017-11-18T21:24:52.271Z,13.60
2017-11-18T21:27:19.277Z,11.20
2017-11-18T21:29:46.469Z,14.57
2017-11-18T21:32:13.314Z,11.75
2017-11-18T21:34:40.567Z,12.63
2017-11-18T21:37:07.398Z,13.52
2017-11-18T21:39:34.253Z,11.95
2017-11-18T21:42:01.140Z,11.43
2017-11-18T21:44:27.984Z,9.90
2017-11-18T21:46:54.809Z,10.98
2017-11-18T21:49:21.684Z,10.02
2017-11-18T21:51:48.463Z,11.73
2017-11-18T21:54:15.342Z,15.18
2017-11-18T21:56:42.229Z,10.52
2017-11-18T21:59:09.047Z,12.15
2017-11-18T22:01:36.401Z,10.57
2017-11-18T22:04:03.307Z,10.82
2017-11-18T22:06:30.121Z,11.10
2017-11-18T22:08:56.929Z,11.00
2017-11-18T22:11:23.875Z,9.48
2017-11-18T22:13:50.680Z,9.80
2017-11-18T22:16:17.484Z,11.82
2017-11-18T22:18:44.345Z,9.60
2017-11-18T22:21:11.195Z,14.20
2017-11-18T22:23:37.971Z,10.52
2017-11-18T22:26:05.098Z,12.15
2017-11-18T22:28:32.260Z,11.80
2017-11-18T22:30:59.075Z,10.20
2017-11-18T22:33:26.008Z,9.43
2017-11-18T22:35:52.814Z,9.77
2017-11-18T22:38:19.587Z,10.20
2017-11-18T22:40:46.810Z,9.18
2017-11-18T22:43:13.634Z,9.27
2017-11-18T22:45:40.781Z,12.73
2017-11-18T22:48:07.684Z,12.18
2017-11-18T22:50:34.480Z,12.27
2017-11-18T22:53:01.652Z,9.90
2017-11-18T22:55:28.536Z,9.10
2017-11-18T22:57:55.717Z,10.30
2017-11-18T23:00:43.823Z,12.05
2017-11-18T23:03:10.650Z,9.07
2017-11-18T23:05:37.466Z,9.05
2017-11-18T23:08:04.924Z,10.35
2017-11-18T23:10:31.781Z,8.45
2017-11-18T23:12:58.690Z,8.75
2017-11-18T23:15:25.298Z,9.25
2017-11-18T23:17:52.218Z,9.50
2017-11-18T23:20:18.765Z,7.60
2017-11-18T23:22:45.368Z,7.97
2017-11-18T23:25:11.923Z,8.55
2017-11-18T23:27:38.479Z,7.75
2017-11-18T23:30:05.165Z,8.70
2017-11-18T23:32:32.093Z,10.30
2017-11-18T23:34:58.657Z,7.80
2017-11-18T23:37:25.287Z,6.22
2017-11-18T23:39:51.863Z,7.55
2017-11-18T23:42:18.423Z,8.23
2017-11-18T23:44:45.060Z,7.35
2017-11-18T23:47:12.002Z,8.35
2017-11-18T23:49:38.584Z,8.18
2017-11-18T23:54:59.595Z,8.48
2017-11-18T23:57:26.227Z,7.87
2017-11-18T23:59:53.191Z,8.60
